Stickney, South Dakota
Current Conditions -  °F | °C
As of 2:53 PM on Thursday 20 Nov 2014 (Local Time) from KMHE Reporting Station
Clear Clear  
Wind Chill: -5°   Ceiling: Unl
Heat Index: -5°   Visibility: 10mi
Dew Point: -11°   Wind: 0mph
Humidity: 63%   Direction: NA
Pressure: 30.18"   Gusts: NA
Location:  43.59°N, 98.44°W
Report Text: KMHE 202053Z AUTO 00000KT 10SM CLR M05/M11 A3018 RMK AO2 SLP245 T10501111 56010
Loading
Personal Weather Stations






























Interactive Weather Map New forecast layout! Learn more

10-Day Weather Forecast

Advertisements
Track Severe Weather on mobile